sensor_id;sensor_type;location;lat;lon;timestamp;pressure;altitude;pressure_sealevel;temperature;humidity
75996;BME280;64681;49.738;9.004;2024-03-02T00:01:04;98372.25;;;3.64;95.55
75996;BME280;64681;49.738;9.004;2024-03-02T00:03:29;98368.25;;;3.67;95.37
75996;BME280;64681;49.738;9.004;2024-03-02T00:05:54;98369.97;;;3.80;94.86
75996;BME280;64681;49.738;9.004;2024-03-02T00:08:24;98374.78;;;3.69;94.95
75996;BME280;64681;49.738;9.004;2024-03-02T00:10:51;98381.91;;;3.69;94.68
75996;BME280;64681;49.738;9.004;2024-03-02T00:13:20;98378.16;;;3.61;94.57
75996;BME280;64681;49.738;9.004;2024-03-02T00:15:52;98368.53;;;3.56;94.84
75996;BME280;64681;49.738;9.004;2024-03-02T00:18:20;98368.69;;;3.51;95.16
75996;BME280;64681;49.738;9.004;2024-03-02T00:20:45;98366.66;;;3.57;94.57
75996;BME280;64681;49.738;9.004;2024-03-02T00:23:15;98365.25;;;3.51;94.52
75996;BME280;64681;49.738;9.004;2024-03-02T00:25:43;98372.88;;;3.52;94.21
75996;BME280;64681;49.738;9.004;2024-03-02T00:28:21;98373.31;;;3.37;94.70
75996;BME280;64681;49.738;9.004;2024-03-02T00:35:57;98355.00;;;3.40;95.58
75996;BME280;64681;49.738;9.004;2024-03-02T00:38:23;98365.34;;;3.28;95.98
75996;BME280;64681;49.738;9.004;2024-03-02T00:40:49;98360.72;;;3.42;95.22
75996;BME280;64681;49.738;9.004;2024-03-02T00:43:44;98346.75;;;3.33;95.88
75996;BME280;64681;49.738;9.004;2024-03-02T00:46:17;98348.00;;;3.36;95.49
75996;BME280;64681;49.738;9.004;2024-03-02T00:48:48;98348.31;;;3.43;95.40
75996;BME280;64681;49.738;9.004;2024-03-02T00:51:16;98347.84;;;3.41;95.11
75996;BME280;64681;49.738;9.004;2024-03-02T00:53:41;98352.41;;;3.09;96.87
75996;BME280;64681;49.738;9.004;2024-03-02T00:56:10;98357.91;;;3.30;96.00
75996;BME280;64681;49.738;9.004;2024-03-02T00:58:37;98347.03;;;3.31;95.20
75996;BME280;64681;49.738;9.004;2024-03-02T01:01:02;98347.50;;;3.25;95.66
75996;BME280;64681;49.738;9.004;2024-03-02T01:03:28;98344.38;;;3.23;96.23
75996;BME280;64681;49.738;9.004;2024-03-02T01:05:53;98347.78;;;3.23;96.19
75996;BME280;64681;49.738;9.004;2024-03-02T01:08:19;98343.31;;;3.24;95.51
75996;BME280;64681;49.738;9.004;2024-03-02T01:10:44;98338.97;;;3.28;95.23
75996;BME280;64681;49.738;9.004;2024-03-02T01:13:10;98349.00;;;3.08;95.84
75996;BME280;64681;49.738;9.004;2024-03-02T01:15:35;98351.91;;;3.07;96.27
75996;BME280;64681;49.738;9.004;2024-03-02T01:18:00;98345.56;;;3.08;95.86
75996;BME280;64681;49.738;9.004;2024-03-02T01:20:26;98352.28;;;3.14;95.57
75996;BME280;64681;49.738;9.004;2024-03-02T01:22:52;98352.00;;;3.24;95.26
75996;BME280;64681;49.738;9.004;2024-03-02T01:25:18;98347.09;;;3.40;94.17
75996;BME280;64681;49.738;9.004;2024-03-02T01:27:44;98343.03;;;2.94;95.13
75996;BME280;64681;49.738;9.004;2024-03-02T01:30:09;98355.53;;;2.79;96.72
75996;BME280;64681;49.738;9.004;2024-03-02T01:32:37;98351.69;;;2.85;95.69
75996;BME280;64681;49.738;9.004;2024-03-02T01:35:04;98347.50;;;2.84;94.96
75996;BME280;64681;49.738;9.004;2024-03-02T01:37:29;98349.91;;;2.72;94.93
75996;BME280;64681;49.738;9.004;2024-03-02T01:39:55;98348.31;;;2.40;96.93
75996;BME280;64681;49.738;9.004;2024-03-02T01:42:20;98348.38;;;2.48;96.76
75996;BME280;64681;49.738;9.004;2024-03-02T01:44:46;98355.84;;;2.55;95.36
75996;BME280;64681;49.738;9.004;2024-03-02T01:47:11;98352.09;;;2.47;95.22
75996;BME280;64681;49.738;9.004;2024-03-02T01:49:37;98349.91;;;2.49;95.52
75996;BME280;64681;49.738;9.004;2024-03-02T01:52:04;98348.84;;;2.50;95.21
75996;BME280;64681;49.738;9.004;2024-03-02T01:54:29;98353.06;;;2.29;98.01
75996;BME280;64681;49.738;9.004;2024-03-02T01:56:55;98356.53;;;2.38;96.92
75996;BME280;64681;49.738;9.004;2024-03-02T01:59:21;98357.72;;;2.32;98.42
75996;BME280;64681;49.738;9.004;2024-03-02T02:01:46;98351.25;;;2.38;97.68
75996;BME280;64681;49.738;9.004;2024-03-02T02:04:12;98342.28;;;2.39;96.48
75996;BME280;64681;49.738;9.004;2024-03-02T02:06:39;98339.50;;;2.44;95.32
75996;BME280;64681;49.738;9.004;2024-03-02T02:09:05;98333.41;;;2.35;95.72
75996;BME280;64681;49.738;9.004;2024-03-02T02:11:34;98340.19;;;2.27;95.66
75996;BME280;64681;49.738;9.004;2024-03-02T02:13:59;98338.31;;;2.28;95.65
75996;BME280;64681;49.738;9.004;2024-03-02T02:16:25;98344.47;;;2.00;97.74
75996;BME280;64681;49.738;9.004;2024-03-02T02:18:50;98332.38;;;1.99;98.69
75996;BME280;64681;49.738;9.004;2024-03-02T02:21:16;98338.00;;;1.84;100.00
75996;BME280;64681;49.738;9.004;2024-03-02T02:23:41;98336.88;;;1.99;99.88
75996;BME280;64681;49.738;9.004;2024-03-02T02:26:11;98331.28;;;1.78;100.00
75996;BME280;64681;49.738;9.004;2024-03-02T02:28:37;98328.41;;;2.02;99.65
75996;BME280;64681;49.738;9.004;2024-03-02T02:31:02;98320.31;;;1.98;99.34
75996;BME280;64681;49.738;9.004;2024-03-02T02:33:28;98307.69;;;2.09;98.02
75996;BME280;64681;49.738;9.004;2024-03-02T02:35:54;98311.94;;;1.96;99.47
75996;BME280;64681;49.738;9.004;2024-03-02T02:38:19;98312.28;;;2.03;98.37
75996;BME280;64681;49.738;9.004;2024-03-02T02:40:45;98310.72;;;2.02;98.80
75996;BME280;64681;49.738;9.004;2024-03-02T02:43:10;98309.28;;;1.96;99.65
75996;BME280;64681;49.738;9.004;2024-03-02T02:45:36;98310.59;;;2.08;98.77
75996;BME280;64681;49.738;9.004;2024-03-02T02:48:01;98309.28;;;1.96;99.02
75996;BME280;64681;49.738;9.004;2024-03-02T02:50:28;98300.94;;;1.80;100.00
75996;BME280;64681;49.738;9.004;2024-03-02T02:52:53;98301.94;;;1.84;100.00
75996;BME280;64681;49.738;9.004;2024-03-02T02:55:18;98306.06;;;1.99;99.07
75996;BME280;64681;49.738;9.004;2024-03-02T02:57:44;98306.97;;;1.95;98.48
75996;BME280;64681;49.738;9.004;2024-03-02T03:00:15;98308.69;;;1.99;97.00
75996;BME280;64681;49.738;9.004;2024-03-02T03:02:46;98304.56;;;1.84;97.93
75996;BME280;64681;49.738;9.004;2024-03-02T03:05:14;98299.25;;;1.62;100.00
75996;BME280;64681;49.738;9.004;2024-03-02T03:07:40;98301.44;;;1.82;98.72
75996;BME280;64681;49.738;9.004;2024-03-02T03:10:07;98303.56;;;1.80;97.66
75996;BME280;64681;49.738;9.004;2024-03-02T03:12:34;98302.81;;;1.80;97.27
75996;BME280;64681;49.738;9.004;2024-03-02T03:14:59;98296.03;;;1.65;98.77
75996;BME280;64681;49.738;9.004;2024-03-02T03:17:26;98304.19;;;1.77;97.48
75996;BME280;64681;49.738;9.004;2024-03-02T03:19:51;98304.38;;;1.81;96.92
75996;BME280;64681;49.738;9.004;2024-03-02T03:22:17;98298.94;;;1.63;98.73
75996;BME280;64681;49.738;9.004;2024-03-02T03:24:42;98303.72;;;1.61;100.00
75996;BME280;64681;49.738;9.004;2024-03-02T03:27:08;98299.22;;;1.76;98.94
75996;BME280;64681;49.738;9.004;2024-03-02T03:29:36;98302.56;;;1.67;98.90
75996;BME280;64681;49.738;9.004;2024-03-02T03:32:01;98297.31;;;1.67;97.95
75996;BME280;64681;49.738;9.004;2024-03-02T03:34:27;98296.25;;;1.54;99.66
75996;BME280;64681;49.738;9.004;2024-03-02T03:36:54;98298.47;;;1.61;99.55
75996;BME280;64681;49.738;9.004;2024-03-02T03:39:20;98300.13;;;1.71;98.17
75996;BME280;64681;49.738;9.004;2024-03-02T03:41:45;98297.69;;;1.61;99.30
75996;BME280;64681;49.738;9.004;2024-03-02T03:44:10;98299.66;;;1.55;100.00
75996;BME280;64681;49.738;9.004;2024-03-02T03:46:36;98294.50;;;1.50;100.00
75996;BME280;64681;49.738;9.004;2024-03-02T03:49:01;98294.50;;;1.64;99.62
75996;BME280;64681;49.738;9.004;2024-03-02T03:51:27;98293.63;;;1.54;100.00
75996;BME280;64681;49.738;9.004;2024-03-02T03:53:52;98297.31;;;1.67;97.92
75996;BME280;64681;49.738;9.004;2024-03-02T03:56:18;98301.53;;;1.54;99.51
75996;BME280;64681;49.738;9.004;2024-03-02T03:58:43;98296.06;;;1.51;99.84
75996;BME280;64681;49.738;9.004;2024-03-02T04:01:09;98292.19;;;1.48;100.00
75996;BME280;64681;49.738;9.004;2024-03-02T04:03:34;98298.59;;;1.56;100.00
75996;BME280;64681;49.738;9.004;2024-03-02T04:06:00;98298.94;;;1.77;98.71
75996;BME280;64681;49.738;9.004;2024-03-02T04:08:25;98297.16;;;1.86;97.26
75996;BME280;64681;49.738;9.004;2024-03-02T04:10:50;98287.41;;;1.73;97.74
75996;BME280;64681;49.738;9.004;2024-03-02T04:13:16;98289.13;;;1.55;98.29
75996;BME280;64681;49.738;9.004;2024-03-02T04:15:41;98291.88;;;1.50;99.07
75996;BME280;64681;49.738;9.004;2024-03-02T04:18:07;98295.56;;;1.63;97.72
75996;BME280;64681;49.738;9.004;2024-03-02T04:20:32;98299.44;;;1.65;97.10
75996;BME280;64681;49.738;9.004;2024-03-02T04:22:58;98297.34;;;1.39;99.23
75996;BME280;64681;49.738;9.004;2024-03-02T04:25:23;98292.00;;;1.31;100.00
75996;BME280;64681;49.738;9.004;2024-03-02T04:27:48;98300.53;;;1.50;98.37
75996;BME280;64681;49.738;9.004;2024-03-02T04:30:14;98292.09;;;1.39;99.79
75996;BME280;64681;49.738;9.004;2024-03-02T04:32:39;98301.03;;;1.52;98.30
75996;BME280;64681;49.738;9.004;2024-03-02T04:35:05;98302.00;;;1.56;97.66
75996;BME280;64681;49.738;9.004;2024-03-02T04:37:34;98298.22;;;1.49;97.35
75996;BME280;64681;49.738;9.004;2024-03-02T04:40:00;98297.06;;;1.41;98.24
75996;BME280;64681;49.738;9.004;2024-03-02T04:42:25;98296.06;;;1.51;97.54
75996;BME280;64681;49.738;9.004;2024-03-02T04:44:51;98288.25;;;1.46;97.58
75996;BME280;64681;49.738;9.004;2024-03-02T04:47:16;98292.84;;;1.54;96.90
75996;BME280;64681;49.738;9.004;2024-03-02T04:49:42;98298.88;;;1.54;96.66
75996;BME280;64681;49.738;9.004;2024-03-02T04:52:08;98296.88;;;1.37;97.32
75996;BME280;64681;49.738;9.004;2024-03-02T04:54:34;98299.03;;;1.21;99.85
75996;BME280;64681;49.738;9.004;2024-03-02T04:57:19;98299.31;;;1.34;98.66
75996;BME280;64681;49.738;9.004;2024-03-02T04:59:45;98301.53;;;1.40;97.92
75996;BME280;64681;49.738;9.004;2024-03-02T05:02:10;98301.16;;;1.47;97.05
75996;BME280;64681;49.738;9.004;2024-03-02T05:04:35;98308.16;;;1.38;97.48
75996;BME280;64681;49.738;9.004;2024-03-02T05:07:01;98299.41;;;1.29;97.78
75996;BME280;64681;49.738;9.004;2024-03-02T05:09:26;98304.47;;;1.25;97.44
75996;BME280;64681;49.738;9.004;2024-03-02T05:11:52;98296.78;;;1.29;97.67
75996;BME280;64681;49.738;9.004;2024-03-02T05:14:37;98298.03;;;1.31;96.56
75996;BME280;64681;49.738;9.004;2024-03-02T05:17:03;98310.41;;;1.31;95.91
75996;BME280;64681;49.738;9.004;2024-03-02T05:19:29;98312.28;;;1.16;96.96
75996;BME280;64681;49.738;9.004;2024-03-02T05:21:54;98315.69;;;1.03;98.55
75996;BME280;64681;49.738;9.004;2024-03-02T05:24:20;98318.31;;;1.03;98.65
75996;BME280;64681;49.738;9.004;2024-03-02T05:26:45;98312.66;;;1.09;98.09
75996;BME280;64681;49.738;9.004;2024-03-02T05:29:11;98317.03;;;1.14;97.70
75996;BME280;64681;49.738;9.004;2024-03-02T05:31:36;98310.81;;;1.24;96.80
75996;BME280;64681;49.738;9.004;2024-03-02T05:34:01;98322.13;;;1.24;96.83
75996;BME280;64681;49.738;9.004;2024-03-02T05:36:28;98321.16;;;1.06;98.85
75996;BME280;64681;49.738;9.004;2024-03-02T05:38:53;98318.41;;;1.12;98.13
75996;BME280;64681;49.738;9.004;2024-03-02T05:41:18;98327.16;;;1.07;99.40
75996;BME280;64681;49.738;9.004;2024-03-02T05:43:44;98326.31;;;1.25;97.75
75996;BME280;64681;49.738;9.004;2024-03-02T05:46:09;98325.31;;;1.35;97.75
75996;BME280;64681;49.738;9.004;2024-03-02T05:48:35;98326.78;;;1.41;97.02
75996;BME280;64681;49.738;9.004;2024-03-02T05:51:00;98328.53;;;1.46;97.49
75996;BME280;64681;49.738;9.004;2024-03-02T05:53:25;98340.31;;;1.35;98.15
75996;BME280;64681;49.738;9.004;2024-03-02T05:55:51;98337.69;;;1.35;97.52
75996;BME280;64681;49.738;9.004;2024-03-02T05:58:21;98349.75;;;1.36;97.48
75996;BME280;64681;49.738;9.004;2024-03-02T06:01:03;98347.03;;;1.41;96.03
75996;BME280;64681;49.738;9.004;2024-03-02T06:03:30;98349.09;;;1.30;97.04
75996;BME280;64681;49.738;9.004;2024-03-02T06:05:55;98354.94;;;1.27;97.51
75996;BME280;64681;49.738;9.004;2024-03-02T06:08:20;98365.06;;;1.20;98.03
75996;BME280;64681;49.738;9.004;2024-03-02T06:10:46;98356.38;;;1.05;100.00
75996;BME280;64681;49.738;9.004;2024-03-02T06:13:11;98357.28;;;1.15;99.61
75996;BME280;64681;49.738;9.004;2024-03-02T06:15:37;98359.22;;;1.37;98.28
75996;BME280;64681;49.738;9.004;2024-03-02T06:18:02;98353.06;;;1.41;97.80
75996;BME280;64681;49.738;9.004;2024-03-02T06:20:28;98352.19;;;1.46;97.89
75996;BME280;64681;49.738;9.004;2024-03-02T06:22:56;98358.13;;;1.52;97.77
75996;BME280;64681;49.738;9.004;2024-03-02T06:25:21;98350.94;;;1.44;98.44
75996;BME280;64681;49.738;9.004;2024-03-02T06:27:46;98350.81;;;1.63;98.35
75996;BME280;64681;49.738;9.004;2024-03-02T06:30:12;98356.16;;;1.71;98.13
75996;BME280;64681;49.738;9.004;2024-03-02T06:32:38;98355.94;;;1.82;97.56
75996;BME280;64681;49.738;9.004;2024-03-02T06:35:03;98359.28;;;1.73;97.92
75996;BME280;64681;49.738;9.004;2024-03-02T06:37:30;98358.28;;;1.69;98.50
75996;BME280;64681;49.738;9.004;2024-03-02T06:39:55;98363.13;;;1.90;99.35
75996;BME280;64681;49.738;9.004;2024-03-02T06:42:20;98360.09;;;2.19;99.17
75996;BME280;64681;49.738;9.004;2024-03-02T06:44:46;98360.53;;;2.35;98.26
75996;BME280;64681;49.738;9.004;2024-03-02T06:47:11;98351.06;;;2.57;98.37
75996;BME280;64681;49.738;9.004;2024-03-02T06:49:37;98354.41;;;2.72;96.60
75996;BME280;64681;49.738;9.004;2024-03-02T06:52:02;98356.28;;;2.71;96.67
75996;BME280;64681;49.738;9.004;2024-03-02T06:54:28;98358.63;;;2.81;96.97
75996;BME280;64681;49.738;9.004;2024-03-02T06:56:53;98362.34;;;2.80;97.02
75996;BME280;64681;49.738;9.004;2024-03-02T06:59:19;98369.69;;;2.92;97.37
75996;BME280;64681;49.738;9.004;2024-03-02T07:01:44;98365.56;;;3.00;97.11
75996;BME280;64681;49.738;9.004;2024-03-02T07:04:10;98366.53;;;2.81;96.34
75996;BME280;64681;49.738;9.004;2024-03-02T07:06:35;98365.31;;;3.19;97.71
75996;BME280;64681;49.738;9.004;2024-03-02T07:09:00;98358.69;;;3.30;97.85
75996;BME280;64681;49.738;9.004;2024-03-02T07:11:26;98355.28;;;3.39;97.73
75996;BME280;64681;49.738;9.004;2024-03-02T07:13:51;98354.09;;;3.62;96.42
75996;BME280;64681;49.738;9.004;2024-03-02T07:16:17;98362.22;;;3.75;95.65
75996;BME280;64681;49.738;9.004;2024-03-02T07:18:58;98367.78;;;3.64;96.11
75996;BME280;64681;49.738;9.004;2024-03-02T07:21:24;98361.72;;;3.73;96.33
75996;BME280;64681;49.738;9.004;2024-03-02T07:23:50;98363.28;;;3.91;96.94
75996;BME280;64681;49.738;9.004;2024-03-02T07:26:16;98364.72;;;4.06;96.76
75996;BME280;64681;49.738;9.004;2024-03-02T07:28:44;98372.50;;;4.20;94.91
75996;BME280;64681;49.738;9.004;2024-03-02T07:31:09;98368.44;;;4.14;94.79
75996;BME280;64681;49.738;9.004;2024-03-02T07:33:35;98374.66;;;4.27;95.27
75996;BME280;64681;49.738;9.004;2024-03-02T07:36:01;98371.56;;;4.25;94.76
75996;BME280;64681;49.738;9.004;2024-03-02T07:38:28;98379.59;;;4.64;93.40
75996;BME280;64681;49.738;9.004;2024-03-02T07:40:53;98379.28;;;4.74;92.37
75996;BME280;64681;49.738;9.004;2024-03-02T07:43:20;98372.72;;;4.80;93.05
75996;BME280;64681;49.738;9.004;2024-03-02T07:45:46;98382.16;;;4.90;93.96
75996;BME280;64681;49.738;9.004;2024-03-02T07:48:12;98372.66;;;4.98;93.35
75996;BME280;64681;49.738;9.004;2024-03-02T07:50:37;98375.13;;;5.03;88.88
75996;BME280;64681;49.738;9.004;2024-03-02T07:53:04;98378.91;;;4.84;90.92
75996;BME280;64681;49.738;9.004;2024-03-02T07:55:30;98371.59;;;4.90;92.00
75996;BME280;64681;49.738;9.004;2024-03-02T07:57:56;98376.66;;;5.13;90.23
75996;BME280;64681;49.738;9.004;2024-03-02T08:00:22;98377.13;;;5.06;90.21
75996;BME280;64681;49.738;9.004;2024-03-02T08:02:49;98380.72;;;5.10;89.37
75996;BME280;64681;49.738;9.004;2024-03-02T08:05:16;98376.75;;;5.25;88.55
75996;BME280;64681;49.738;9.004;2024-03-02T08:07:43;98383.91;;;5.25;87.62
75996;BME280;64681;49.738;9.004;2024-03-02T08:10:10;98386.28;;;5.17;89.32
75996;BME280;64681;49.738;9.004;2024-03-02T08:12:35;98382.66;;;5.31;87.88
75996;BME280;64681;49.738;9.004;2024-03-02T08:15:01;98385.88;;;5.36;87.95
75996;BME280;64681;49.738;9.004;2024-03-02T08:17:26;98383.78;;;5.51;86.97
75996;BME280;64681;49.738;9.004;2024-03-02T08:19:52;98392.94;;;5.62;87.43
75996;BME280;64681;49.738;9.004;2024-03-02T08:22:19;98386.94;;;5.74;86.89
75996;BME280;64681;49.738;9.004;2024-03-02T08:24:44;98379.44;;;5.46;86.87
75996;BME280;64681;49.738;9.004;2024-03-02T08:27:11;98394.19;;;5.56;88.80
75996;BME280;64681;49.738;9.004;2024-03-02T08:29:37;98389.75;;;6.20;82.14
75996;BME280;64681;49.738;9.004;2024-03-02T08:32:03;98391.47;;;7.04;79.75
75996;BME280;64681;49.738;9.004;2024-03-02T08:34:28;98382.94;;;7.85;76.31
75996;BME280;64681;49.738;9.004;2024-03-02T08:36:53;98378.69;;;8.66;76.07
75996;BME280;64681;49.738;9.004;2024-03-02T08:39:19;98377.94;;;9.45;71.21
75996;BME280;64681;49.738;9.004;2024-03-02T08:41:45;98365.25;;;9.58;69.81
75996;BME280;64681;49.738;9.004;2024-03-02T08:44:12;98371.75;;;9.57;69.68
75996;BME280;64681;49.738;9.004;2024-03-02T08:46:39;98380.28;;;9.82;70.55
75996;BME280;64681;49.738;9.004;2024-03-02T08:49:04;98383.22;;;9.97;68.92
75996;BME280;64681;49.738;9.004;2024-03-02T08:51:30;98392.06;;;10.01;69.75
75996;BME280;64681;49.738;9.004;2024-03-02T08:53:56;98378.66;;;9.97;68.14
75996;BME280;64681;49.738;9.004;2024-03-02T08:56:22;98380.03;;;10.07;70.03
75996;BME280;64681;49.738;9.004;2024-03-02T08:58:49;98377.91;;;10.36;69.26
75996;BME280;64681;49.738;9.004;2024-03-02T09:01:14;98376.16;;;10.64;69.73
75996;BME280;64681;49.738;9.004;2024-03-02T09:03:41;98385.47;;;10.97;69.41
75996;BME280;64681;49.738;9.004;2024-03-02T09:06:10;98379.31;;;11.16;67.35
75996;BME280;64681;49.738;9.004;2024-03-02T09:08:35;98375.94;;;10.96;66.99
75996;BME280;64681;49.738;9.004;2024-03-02T09:11:02;98383.81;;;10.88;66.30
75996;BME280;64681;49.738;9.004;2024-03-02T09:13:28;98387.66;;;10.68;68.75
75996;BME280;64681;49.738;9.004;2024-03-02T09:15:54;98383.81;;;10.65;69.82
75996;BME280;64681;49.738;9.004;2024-03-02T09:18:20;98378.47;;;10.65;70.92
75996;BME280;64681;49.738;9.004;2024-03-02T09:20:45;98378.75;;;10.60;70.44
75996;BME280;64681;49.738;9.004;2024-03-02T09:23:11;98379.69;;;10.48;71.36
75996;BME280;64681;49.738;9.004;2024-03-02T09:25:36;98371.25;;;10.46;72.21
75996;BME280;64681;49.738;9.004;2024-03-02T09:28:02;98375.25;;;10.36;71.87
75996;BME280;64681;49.738;9.004;2024-03-02T09:30:28;98372.63;;;10.01;75.32
75996;BME280;64681;49.738;9.004;2024-03-02T09:32:53;98368.09;;;10.21;71.63
75996;BME280;64681;49.738;9.004;2024-03-02T09:35:19;98364.56;;;10.17;74.43
75996;BME280;64681;49.738;9.004;2024-03-02T09:37:45;98364.38;;;10.25;73.90
75996;BME280;64681;49.738;9.004;2024-03-02T09:40:10;98363.50;;;10.21;72.79
75996;BME280;64681;49.738;9.004;2024-03-02T09:42:37;98365.13;;;10.26;72.33
75996;BME280;64681;49.738;9.004;2024-03-02T09:45:03;98352.50;;;10.23;73.58
75996;BME280;64681;49.738;9.004;2024-03-02T09:47:28;98346.41;;;10.42;74.02
75996;BME280;64681;49.738;9.004;2024-03-02T09:49:54;98347.00;;;10.55;73.54
75996;BME280;64681;49.738;9.004;2024-03-02T09:52:22;98347.19;;;10.66;73.26
75996;BME280;64681;49.738;9.004;2024-03-02T09:54:48;98364.72;;;10.86;73.01
75996;BME280;64681;49.738;9.004;2024-03-02T09:57:14;98354.56;;;10.96;72.66
75996;BME280;64681;49.738;9.004;2024-03-02T09:59:40;98359.72;;;11.08;73.01
75996;BME280;64681;49.738;9.004;2024-03-02T10:02:05;98355.41;;;11.00;72.67
75996;BME280;64681;49.738;9.004;2024-03-02T10:04:33;98353.22;;;11.32;71.13
75996;BME280;64681;49.738;9.004;2024-03-02T10:07:10;98340.97;;;11.88;66.13
75996;BME280;64681;49.738;9.004;2024-03-02T10:09:40;98338.38;;;11.96;62.91
75996;BME280;64681;49.738;9.004;2024-03-02T10:12:07;98344.34;;;12.12;62.87
75996;BME280;64681;49.738;9.004;2024-03-02T10:14:34;98346.09;;;12.31;63.29
75996;BME280;64681;49.738;9.004;2024-03-02T10:17:06;98335.28;;;12.58;59.82
75996;BME280;64681;49.738;9.004;2024-03-02T10:19:33;98332.09;;;12.87;59.21
75996;BME280;64681;49.738;9.004;2024-03-02T10:22:02;98340.78;;;13.21;58.95
75996;BME280;64681;49.738;9.004;2024-03-02T10:24:41;98328.75;;;13.04;58.06
75996;BME280;64681;49.738;9.004;2024-03-02T10:29:46;98320.63;;;12.90;56.72
75996;BME280;64681;49.738;9.004;2024-03-02T10:32:12;98317.53;;;12.43;56.81
75996;BME280;64681;49.738;9.004;2024-03-02T10:34:40;98315.84;;;12.27;58.26
75996;BME280;64681;49.738;9.004;2024-03-02T10:37:06;98315.41;;;12.22;57.18
75996;BME280;64681;49.738;9.004;2024-03-02T10:39:32;98320.84;;;12.29;59.26
75996;BME280;64681;49.738;9.004;2024-03-02T10:42:02;98321.00;;;12.09;61.18
75996;BME280;64681;49.738;9.004;2024-03-02T10:44:31;98306.97;;;12.19;58.51
75996;BME280;64681;49.738;9.004;2024-03-02T10:47:00;98307.47;;;12.32;59.03
75996;BME280;64681;49.738;9.004;2024-03-02T10:49:27;98305.78;;;12.17;61.42
75996;BME280;64681;49.738;9.004;2024-03-02T10:51:54;98307.84;;;12.31;57.98
75996;BME280;64681;49.738;9.004;2024-03-02T10:54:19;98303.78;;;12.07;59.19
75996;BME280;64681;49.738;9.004;2024-03-02T10:56:52;98301.91;;;12.11;58.77
75996;BME280;64681;49.738;9.004;2024-03-02T10:59:35;98293.16;;;12.14;56.14
75996;BME280;64681;49.738;9.004;2024-03-02T11:02:02;98294.50;;;12.34;54.63
75996;BME280;64681;49.738;9.004;2024-03-02T11:04:29;98289.59;;;12.40;56.79
75996;BME280;64681;49.738;9.004;2024-03-02T11:07:04;98286.47;;;12.34;58.08
75996;BME280;64681;49.738;9.004;2024-03-02T11:09:33;98275.22;;;12.59;56.00
75996;BME280;64681;49.738;9.004;2024-03-02T11:14:31;98280.16;;;12.54;59.03
75996;BME280;64681;49.738;9.004;2024-03-02T11:17:02;98275.19;;;12.56;58.97
75996;BME280;64681;49.738;9.004;2024-03-02T11:19:30;98271.59;;;12.37;57.56
75996;BME280;64681;49.738;9.004;2024-03-02T11:21:57;98264.63;;;12.29;57.76
75996;BME280;64681;49.738;9.004;2024-03-02T11:26:53;98266.84;;;12.64;57.54
75996;BME280;64681;49.738;9.004;2024-03-02T11:32:16;98259.25;;;12.70;60.90
75996;BME280;64681;49.738;9.004;2024-03-02T11:34:44;98259.31;;;12.77;57.17
75996;BME280;64681;49.738;9.004;2024-03-02T11:37:16;98254.47;;;12.97;55.27
75996;BME280;64681;49.738;9.004;2024-03-02T11:39:45;98253.63;;;12.86;57.92
75996;BME280;64681;49.738;9.004;2024-03-02T11:42:11;98251.84;;;13.05;55.10
75996;BME280;64681;49.738;9.004;2024-03-02T11:44:41;98248.91;;;13.32;53.60
75996;BME280;64681;49.738;9.004;2024-03-02T11:47:08;98255.63;;;13.70;51.72
75996;BME280;64681;49.738;9.004;2024-03-02T11:49:39;98253.59;;;13.42;53.24
75996;BME280;64681;49.738;9.004;2024-03-02T11:52:06;98250.56;;;13.54;54.09
75996;BME280;64681;49.738;9.004;2024-03-02T11:54:40;98244.09;;;13.63;56.72
75996;BME280;64681;49.738;9.004;2024-03-02T11:57:09;98240.75;;;13.98;54.15
75996;BME280;64681;49.738;9.004;2024-03-02T11:59:34;98241.97;;;14.33;54.00
75996;BME280;64681;49.738;9.004;2024-03-02T12:02:00;98233.53;;;14.24;54.10
75996;BME280;64681;49.738;9.004;2024-03-02T12:04:26;98235.84;;;14.33;54.03
75996;BME280;64681;49.738;9.004;2024-03-02T12:07:01;98225.09;;;14.54;52.86
75996;BME280;64681;49.738;9.004;2024-03-02T12:09:28;98211.28;;;14.81;52.08
75996;BME280;64681;49.738;9.004;2024-03-02T12:12:07;98216.59;;;13.91;55.07
75996;BME280;64681;49.738;9.004;2024-03-02T12:14:34;98210.03;;;13.70;55.52
75996;BME280;64681;49.738;9.004;2024-03-02T12:17:01;98207.03;;;14.01;53.89
75996;BME280;64681;49.738;9.004;2024-03-02T12:19:27;98210.91;;;14.36;53.66
75996;BME280;64681;49.738;9.004;2024-03-02T12:21:56;98204.75;;;14.14;54.88
75996;BME280;64681;49.738;9.004;2024-03-02T12:24:22;98203.19;;;14.13;54.48
75996;BME280;64681;49.738;9.004;2024-03-02T12:26:49;98205.16;;;14.34;52.85
75996;BME280;64681;49.738;9.004;2024-03-02T12:29:15;98197.47;;;14.76;52.94
75996;BME280;64681;49.738;9.004;2024-03-02T12:31:42;98193.25;;;14.75;51.82
75996;BME280;64681;49.738;9.004;2024-03-02T12:34:08;98197.47;;;14.83;51.28
75996;BME280;64681;49.738;9.004;2024-03-02T12:36:38;98191.69;;;14.84;50.83
75996;BME280;64681;49.738;9.004;2024-03-02T12:39:04;98196.25;;;15.13;51.05
75996;BME280;64681;49.738;9.004;2024-03-02T12:41:29;98190.47;;;15.14;49.73
75996;BME280;64681;49.738;9.004;2024-03-02T12:43:55;98178.47;;;15.37;49.18
75996;BME280;64681;49.738;9.004;2024-03-02T12:46:20;98178.66;;;15.75;48.39
75996;BME280;64681;49.738;9.004;2024-03-02T12:48:46;98178.16;;;16.02;48.18
75996;BME280;64681;49.738;9.004;2024-03-02T12:51:12;98169.13;;;16.27;49.22
75996;BME280;64681;49.738;9.004;2024-03-02T12:53:37;98156.81;;;16.26;47.37
75996;BME280;64681;49.738;9.004;2024-03-02T12:56:03;98152.72;;;16.10;50.67
75996;BME280;64681;49.738;9.004;2024-03-02T12:58:29;98158.38;;;15.60;48.90
75996;BME280;64681;49.738;9.004;2024-03-02T13:01:09;98164.19;;;15.55;49.76
75996;BME280;64681;49.738;9.004;2024-03-02T13:03:37;98170.63;;;15.68;49.49
75996;BME280;64681;49.738;9.004;2024-03-02T13:06:07;98164.03;;;15.80;50.11
75996;BME280;64681;49.738;9.004;2024-03-02T13:08:33;98167.34;;;16.06;49.10
75996;BME280;64681;49.738;9.004;2024-03-02T13:10:59;98167.78;;;15.19;48.18
75996;BME280;64681;49.738;9.004;2024-03-02T13:13:24;98154.28;;;15.30;47.92
75996;BME280;64681;49.738;9.004;2024-03-02T13:15:50;98153.06;;;15.45;48.11
75996;BME280;64681;49.738;9.004;2024-03-02T13:18:18;98163.22;;;15.16;47.85
75996;BME280;64681;49.738;9.004;2024-03-02T13:20:43;98160.56;;;15.01;48.91